createdAt,value
2019-04-20T00:01:32.653Z,11.70
2019-04-20T00:04:01.033Z,13.78
2019-04-20T00:06:31.670Z,11.38
2019-04-20T00:09:09.694Z,13.43
2019-04-20T00:11:41.018Z,9.18
2019-04-20T00:14:07.160Z,9.13
2019-04-20T00:16:33.705Z,12.75
2019-04-20T00:21:43.117Z,11.10
2019-04-20T00:24:15.731Z,13.13
2019-04-20T00:29:29.476Z,9.20
2019-04-20T00:31:55.464Z,14.43
2019-04-20T00:34:18.446Z,13.90
2019-04-20T00:36:41.457Z,9.53
2019-04-20T00:39:13.217Z,12.55
2019-04-20T00:41:48.027Z,12.90
2019-04-20T00:44:17.376Z,11.68
2019-04-20T00:46:58.544Z,12.93
2019-04-20T00:49:27.274Z,11.68
2019-04-20T00:52:07.636Z,10.78
2019-04-20T00:54:13.592Z,14.38
2019-04-20T00:56:43.406Z,12.93
2019-04-20T00:59:26.030Z,9.93
2019-04-20T01:02:00.586Z,14.10
2019-04-20T01:04:29.967Z,11.88
2019-04-20T01:07:06.212Z,13.20
2019-04-20T01:09:28.949Z,13.05
2019-04-20T01:11:58.583Z,11.10
2019-04-20T01:14:37.872Z,13.45
2019-04-20T01:17:05.685Z,12.75
2019-04-20T01:19:27.982Z,14.00
2019-04-20T01:22:03.642Z,12.18
2019-04-20T01:24:33.067Z,12.13
2019-04-20T01:27:00.833Z,11.08
2019-04-20T01:29:36.621Z,15.53
2019-04-20T01:32:10.436Z,13.70
2019-04-20T01:34:42.741Z,15.58
2019-04-20T01:37:18.134Z,13.93
2019-04-20T01:39:37.208Z,14.60
2019-04-20T01:42:04.455Z,16.10
2019-04-20T01:44:38.523Z,16.40
2019-04-20T01:47:06.515Z,15.13
2019-04-20T01:49:36.798Z,18.32
2019-04-20T01:52:12.993Z,14.65
2019-04-20T01:54:56.685Z,14.20
2019-04-20T01:57:33.132Z,16.65
2019-04-20T02:00:06.056Z,16.45
2019-04-20T02:02:34.314Z,16.37
2019-04-20T02:05:09.978Z,20.85
2019-04-20T02:07:37.530Z,17.23
2019-04-20T02:10:05.279Z,17.17
2019-04-20T02:12:35.665Z,15.70
2019-04-20T02:15:04.797Z,19.55
2019-04-20T02:17:40.747Z,14.87
2019-04-20T02:20:23.368Z,15.43
2019-04-20T02:22:51.839Z,14.40
2019-04-20T02:25:05.842Z,14.63
2019-04-20T02:27:45.417Z,20.32
2019-04-20T02:30:48.200Z,17.73
2019-04-20T02:33:27.467Z,14.58
2019-04-20T02:36:08.748Z,18.15
2019-04-20T02:38:46.570Z,18.00
2019-04-20T02:43:46.790Z,15.18
2019-04-20T02:45:57.775Z,15.35
2019-04-20T02:48:35.965Z,15.80
2019-04-20T02:51:06.258Z,19.42
2019-04-20T02:53:41.551Z,16.90
2019-04-20T02:58:45.004Z,16.48
2019-04-20T03:01:11.928Z,16.85
2019-04-20T03:03:30.691Z,14.70
2019-04-20T03:06:05.240Z,20.00
2019-04-20T03:08:40.608Z,17.95
2019-04-20T03:11:19.166Z,17.17
2019-04-20T03:13:45.620Z,17.82
2019-04-20T03:16:14.963Z,18.20
2019-04-20T03:18:41.516Z,17.42
2019-04-20T03:21:21.458Z,19.10
2019-04-20T03:23:54.190Z,19.25
2019-04-20T03:26:21.447Z,16.32
2019-04-20T03:28:50.256Z,17.15
2019-04-20T03:32:14.631Z,18.02
2019-04-20T03:36:57.181Z,19.57
2019-04-20T03:39:13.874Z,21.00
2019-04-20T03:41:34.507Z,19.33
2019-04-20T03:44:03.676Z,23.87
2019-04-20T03:46:36.691Z,20.15
2019-04-20T03:49:14.632Z,19.77
2019-04-20T03:51:53.440Z,18.27
2019-04-20T03:54:30.795Z,17.98
2019-04-20T03:57:29.320Z,18.07
2019-04-20T04:00:00.450Z,20.10
2019-04-20T04:03:05.636Z,24.03
2019-04-20T04:05:27.484Z,21.73
2019-04-20T04:07:46.782Z,21.17
2019-04-20T04:10:25.918Z,21.17
2019-04-20T04:13:05.134Z,20.53
2019-04-20T04:15:37.049Z,20.77
2019-04-20T04:18:17.143Z,19.70
2019-04-20T04:20:47.850Z,20.20
2019-04-20T04:23:31.139Z,22.10
2019-04-20T04:25:59.204Z,19.20
2019-04-20T04:28:28.610Z,21.70
2019-04-20T04:31:04.078Z,18.13
2019-04-20T04:36:03.110Z,21.57
2019-04-20T04:38:37.771Z,22.15
2019-04-20T04:41:16.977Z,21.10
2019-04-20T04:43:38.957Z,19.83
2019-04-20T04:45:48.896Z,21.30
2019-04-20T04:48:25.218Z,24.00
2019-04-20T04:50:56.099Z,20.00
2019-04-20T04:53:29.847Z,24.23
2019-04-20T04:55:56.461Z,22.70
2019-04-20T04:58:19.550Z,20.07
2019-04-20T05:00:49.347Z,21.00
2019-04-20T05:03:37.581Z,16.67
2019-04-20T05:06:13.659Z,14.95
2019-04-20T05:08:31.599Z,19.60
2019-04-20T05:10:56.228Z,17.25
2019-04-20T05:13:35.650Z,16.00
2019-04-20T05:16:07.589Z,17.85
2019-04-20T05:18:51.161Z,14.55
2019-04-20T05:21:21.936Z,15.18
2019-04-20T05:23:41.371Z,16.02
2019-04-20T05:26:36.323Z,17.23
2019-04-20T05:28:58.999Z,20.02
2019-04-20T05:31:24.465Z,17.42
2019-04-20T05:34:14.438Z,19.37
2019-04-20T05:36:44.857Z,13.50
2019-04-20T05:39:29.560Z,15.88
2019-04-20T05:41:53.213Z,15.45
2019-04-20T05:44:24.784Z,14.23
2019-04-20T05:49:31.766Z,15.20
2019-04-20T05:52:10.423Z,12.55
2019-04-20T05:54:40.351Z,16.20
2019-04-20T05:57:14.446Z,13.40
2019-04-20T06:02:15.974Z,10.45
2019-04-20T06:05:00.375Z,14.30
2019-04-20T06:07:27.078Z,15.53
2019-04-20T06:10:22.033Z,14.93
2019-04-20T06:12:53.150Z,12.30
2019-04-20T06:15:40.739Z,13.25
2019-04-20T06:18:06.321Z,19.57
2019-04-20T06:21:15.814Z,18.98
2019-04-20T06:23:42.765Z,14.70
2019-04-20T06:26:20.127Z,16.82
2019-04-20T06:28:36.612Z,17.00
2019-04-20T06:31:14.918Z,15.75
2019-04-20T06:36:46.978Z,16.80
2019-04-20T06:39:32.634Z,16.55
2019-04-20T06:42:31.952Z,20.75
2019-04-20T06:44:50.843Z,20.72
2019-04-20T06:47:24.989Z,17.17
2019-04-20T06:49:51.602Z,16.52
2019-04-20T06:55:02.455Z,24.23
2019-04-20T06:57:45.365Z,20.43
2019-04-20T07:00:36.869Z,18.87
2019-04-20T07:02:48.499Z,21.27
2019-04-20T07:05:27.397Z,29.70
2019-04-20T07:08:15.512Z,20.00
2019-04-20T07:10:38.117Z,20.80
2019-04-20T07:13:00.079Z,22.02
2019-04-20T07:15:46.545Z,17.15
2019-04-20T07:18:29.980Z,20.52
2019-04-20T07:21:12.733Z,20.17
2019-04-20T07:26:06.657Z,18.05
2019-04-20T07:28:41.136Z,23.70
2019-04-20T07:31:02.823Z,18.75
2019-04-20T07:33:44.630Z,19.12
2019-04-20T07:36:04.172Z,20.25
2019-04-20T07:38:41.599Z,17.23
2019-04-20T07:41:21.624Z,19.42
2019-04-20T07:44:01.701Z,19.37
2019-04-20T07:46:37.625Z,18.62
2019-04-20T07:48:55.300Z,21.60
2019-04-20T07:51:16.122Z,19.70
2019-04-20T07:54:19.357Z,19.07
2019-04-20T07:56:37.520Z,18.07
2019-04-20T07:58:52.401Z,25.40
2019-04-20T08:01:58.841Z,20.20
2019-04-20T08:04:27.246Z,21.75
2019-04-20T08:06:54.874Z,19.62
2019-04-20T08:09:29.366Z,20.00
2019-04-20T08:12:21.726Z,22.05
2019-04-20T08:14:56.801Z,18.50
2019-04-20T08:17:44.331Z,19.80
2019-04-20T08:19:50.834Z,16.30
2019-04-20T08:22:27.014Z,20.05
2019-04-20T08:24:55.264Z,21.42
2019-04-20T08:27:14.211Z,16.25
2019-04-20T08:29:57.732Z,18.95
2019-04-20T08:32:47.037Z,18.82
2019-04-20T08:35:25.944Z,19.07
2019-04-20T08:38:21.202Z,18.23
2019-04-20T08:40:33.026Z,20.02
2019-04-20T08:43:11.194Z,18.07
2019-04-20T08:45:51.079Z,16.85
2019-04-20T08:48:25.990Z,19.00
2019-04-20T08:53:28.174Z,19.98
2019-04-20T08:55:51.470Z,15.63
2019-04-20T08:58:07.225Z,20.03
2019-04-20T09:00:46.199Z,16.55
2019-04-20T09:03:17.994Z,17.00
2019-04-20T09:05:59.519Z,19.62
2019-04-20T09:08:24.034Z,15.93
2019-04-20T09:11:05.881Z,19.67
2019-04-20T09:13:37.205Z,14.63
2019-04-20T09:16:04.256Z,15.58
2019-04-20T09:18:49.369Z,14.90
2019-04-20T09:21:32.925Z,15.05
2019-04-20T09:24:21.739Z,17.12
2019-04-20T09:26:57.274Z,18.12
2019-04-20T09:29:21.004Z,15.28
2019-04-20T09:31:52.127Z,15.53
2019-04-20T09:34:37.018Z,11.63
2019-04-20T09:37:21.729Z,16.20
2019-04-20T09:39:43.975Z,14.90
2019-04-20T09:42:14.692Z,11.60
2019-04-20T09:44:48.838Z,17.55
2019-04-20T09:47:26.468Z,16.90
2019-04-20T09:50:00.849Z,20.77
2019-04-20T09:52:38.190Z,16.67
2019-04-20T09:55:06.973Z,15.05
2019-04-20T09:57:37.968Z,12.98
2019-04-20T10:00:05.360Z,14.85
2019-04-20T10:02:27.842Z,14.70
2019-04-20T10:04:53.618Z,17.98
2019-04-20T10:07:31.163Z,15.60
2019-04-20T10:09:59.951Z,15.78
2019-04-20T10:12:29.405Z,16.48
2019-04-20T10:15:06.533Z,19.80
2019-04-20T10:17:31.720Z,17.10
2019-04-20T10:20:09.591Z,17.52
2019-04-20T10:22:33.677Z,15.93
2019-04-20T10:25:02.719Z,15.88
2019-04-20T10:27:32.773Z,18.00
2019-04-20T10:30:04.688Z,17.23
2019-04-20T10:32:40.390Z,12.35
2019-04-20T10:35:11.809Z,14.35
2019-04-20T10:37:45.235Z,14.78
2019-04-20T10:40:22.219Z,15.70
2019-04-20T10:42:45.973Z,13.22
2019-04-20T10:45:17.060Z,15.23
2019-04-20T10:47:45.748Z,16.42
2019-04-20T10:50:14.917Z,12.47
2019-04-20T10:52:47.747Z,12.37
2019-04-20T10:55:18.589Z,17.17
2019-04-20T10:57:47.555Z,11.55
2019-04-20T11:00:17.515Z,10.82
2019-04-20T11:02:48.057Z,11.38
2019-04-20T11:05:22.637Z,14.07
2019-04-20T11:07:54.727Z,14.07
2019-04-20T11:10:28.576Z,11.95
2019-04-20T11:12:54.245Z,12.30
2019-04-20T11:15:24.077Z,12.45
2019-04-20T11:17:53.440Z,11.80
2019-04-20T11:20:23.216Z,10.53
2019-04-20T11:22:58.209Z,12.47
2019-04-20T11:25:28.343Z,14.38
2019-04-20T11:27:58.728Z,11.45
2019-04-20T11:30:32.208Z,10.28
2019-04-20T11:33:02.224Z,10.20
2019-04-20T11:35:36.152Z,9.05
2019-04-20T11:38:02.853Z,10.13
2019-04-20T11:40:32.930Z,8.60
2019-04-20T11:43:01.879Z,8.95
2019-04-20T11:45:33.227Z,10.03
2019-04-20T11:48:03.203Z,11.43
2019-04-20T11:50:37.986Z,13.47
2019-04-20T11:53:06.586Z,11.50
2019-04-20T11:55:36.248Z,12.95
2019-04-20T11:58:05.914Z,10.58
2019-04-20T12:00:46.971Z,9.33
2019-04-20T12:03:23.737Z,7.03
2019-04-20T12:05:52.975Z,5.47
2019-04-20T12:08:16.694Z,10.15
2019-04-20T12:10:50.283Z,11.33
2019-04-20T12:13:16.431Z,8.55
2019-04-20T12:15:45.573Z,8.68
2019-04-20T12:18:15.735Z,8.15
2019-04-20T12:20:44.993Z,11.22
2019-04-20T12:23:14.098Z,9.35
2019-04-20T12:25:44.476Z,7.20
2019-04-20T12:28:13.736Z,9.48
2019-04-20T12:30:43.784Z,13.00
2019-04-20T12:33:13.592Z,8.53
2019-04-20T12:35:44.479Z,7.90
2019-04-20T12:38:14.629Z,7.67
2019-04-20T12:40:44.085Z,8.68
2019-04-20T12:43:13.217Z,9.75
2019-04-20T12:45:42.137Z,9.43
2019-04-20T12:48:11.442Z,8.75
2019-04-20T12:50:41.454Z,7.22
2019-04-20T12:53:13.250Z,10.90
2019-04-20T12:55:46.529Z,8.53
2019-04-20T12:58:16.736Z,11.43
2019-04-20T13:00:49.990Z,8.90
2019-04-20T13:03:19.601Z,13.20
2019-04-20T13:05:50.014Z,7.58
2019-04-20T13:08:28.443Z,9.03
2019-04-20T13:10:55.707Z,10.25
2019-04-20T13:13:30.648Z,9.20
2019-04-20T13:16:10.213Z,10.08
2019-04-20T13:18:43.526Z,7.80
2019-04-20T13:21:19.015Z,8.25
2019-04-20T13:23:48.954Z,9.98
2019-04-20T13:26:19.194Z,10.63
2019-04-20T13:28:48.758Z,10.05
2019-04-20T13:31:17.788Z,10.40
2019-04-20T13:33:47.510Z,9.75
2019-04-20T13:36:16.633Z,9.63
2019-04-20T13:38:45.896Z,11.43
2019-04-20T13:41:15.755Z,11.38
2019-04-20T13:43:45.931Z,8.58
2019-04-20T13:46:16.316Z,8.08
2019-04-20T13:48:51.034Z,7.28
2019-04-20T13:51:20.750Z,9.13
2019-04-20T13:53:53.257Z,6.47
2019-04-20T13:56:23.828Z,8.33
2019-04-20T13:58:58.060Z,7.87
2019-04-20T14:01:28.958Z,8.98
2019-04-20T14:04:05.271Z,9.20
2019-04-20T14:06:35.356Z,9.03
2019-04-20T14:09:07.439Z,9.98
2019-04-20T14:11:36.688Z,12.85
2019-04-20T14:14:08.126Z,8.50
2019-04-20T14:16:36.952Z,9.53
2019-04-20T14:19:07.059Z,8.58
2019-04-20T14:21:36.396Z,8.03
2019-04-20T14:24:08.779Z,8.48
2019-04-20T14:26:40.361Z,9.25
2019-04-20T14:29:12.729Z,9.38
2019-04-20T14:31:42.133Z,7.22
2019-04-20T14:34:15.145Z,9.15
2019-04-20T14:36:44.555Z,8.45
2019-04-20T14:39:20.290Z,10.90
2019-04-20T14:41:54.137Z,8.80
2019-04-20T14:44:27.811Z,8.33
2019-04-20T14:46:57.997Z,11.00
2019-04-20T14:49:30.614Z,8.68
2019-04-20T14:52:01.517Z,11.65
2019-04-20T14:54:39.362Z,9.63
2019-04-20T14:57:10.112Z,7.12
2019-04-20T14:59:41.333Z,11.08
2019-04-20T15:02:12.699Z,9.28
2019-04-20T15:04:45.337Z,8.33
2019-04-20T15:07:15.001Z,8.95
2019-04-20T15:09:44.667Z,7.75
2019-04-20T15:12:49.170Z,12.82
2019-04-20T15:15:10.551Z,10.55
2019-04-20T15:17:41.695Z,9.90
2019-04-20T15:22:47.721Z,10.68
2019-04-20T15:25:17.712Z,14.60
2019-04-20T15:27:48.308Z,9.97
2019-04-20T15:30:18.337Z,9.65
2019-04-20T15:32:49.765Z,8.73
2019-04-20T15:35:25.049Z,9.20
2019-04-20T15:37:57.313Z,8.05
2019-04-20T15:43:06.448Z,10.55
2019-04-20T15:45:29.422Z,15.30
2019-04-20T15:47:59.479Z,8.85
2019-04-20T15:50:29.694Z,9.68
2019-04-20T15:52:59.108Z,9.03
2019-04-20T15:55:32.948Z,8.35
2019-04-20T15:58:06.054Z,7.05
2019-04-20T16:00:34.151Z,6.03
2019-04-20T16:03:21.372Z,9.60
2019-04-20T16:05:53.276Z,9.13
2019-04-20T16:08:28.013Z,8.60
2019-04-20T16:10:57.305Z,9.80
2019-04-20T16:13:33.861Z,9.78
2019-04-20T16:15:58.106Z,10.15
2019-04-20T16:18:27.249Z,10.68
2019-04-20T16:21:06.237Z,10.15
2019-04-20T16:23:30.556Z,7.30
2019-04-20T16:26:01.762Z,7.92
2019-04-20T16:28:31.922Z,10.30
2019-04-20T16:31:01.457Z,10.65
2019-04-20T16:33:30.573Z,9.20
2019-04-20T16:36:00.656Z,8.55
2019-04-20T16:38:30.555Z,7.17
2019-04-20T16:41:00.042Z,9.73
2019-04-20T16:43:32.862Z,12.03
2019-04-20T16:45:59.309Z,9.33
2019-04-20T16:48:28.346Z,10.00
2019-04-20T16:50:57.048Z,10.45
2019-04-20T16:53:26.839Z,12.37
2019-04-20T16:55:56.822Z,11.80
2019-04-20T16:58:26.028Z,9.38
2019-04-20T17:00:55.913Z,12.53
2019-04-20T17:03:38.149Z,20.20
2019-04-20T17:05:55.940Z,16.27
2019-04-20T17:08:24.948Z,12.07
2019-04-20T17:10:53.947Z,9.70
2019-04-20T17:13:34.146Z,10.53
2019-04-20T17:15:53.031Z,11.12
2019-04-20T17:18:21.654Z,11.60
2019-04-20T17:20:50.644Z,11.85
2019-04-20T17:23:19.514Z,14.98
2019-04-20T17:25:55.361Z,12.85
2019-04-20T17:28:26.798Z,11.40
2019-04-20T17:31:07.186Z,12.78
2019-04-20T17:33:50.616Z,11.50
2019-04-20T17:36:15.001Z,11.45
2019-04-20T17:38:44.543Z,12.78
2019-04-20T17:41:38.834Z,13.13
2019-04-20T17:44:01.473Z,12.82
2019-04-20T17:46:27.265Z,13.58
2019-04-20T17:49:00.825Z,11.80
2019-04-20T17:51:34.391Z,13.77
2019-04-20T17:53:52.850Z,11.00
2019-04-20T17:56:17.425Z,10.82
2019-04-20T17:58:46.307Z,12.37
2019-04-20T18:01:26.614Z,11.60
2019-04-20T18:04:18.661Z,11.57
2019-04-20T18:06:41.529Z,12.47
2019-04-20T18:09:04.134Z,14.87
2019-04-20T18:11:25.289Z,10.73
2019-04-20T18:13:58.924Z,16.03
2019-04-20T18:16:46.549Z,12.07
2019-04-20T18:19:21.733Z,11.93
2019-04-20T18:21:47.686Z,14.58
2019-04-20T18:24:45.729Z,12.58
2019-04-20T18:27:18.777Z,13.72
2019-04-20T18:29:52.829Z,15.18
2019-04-20T18:32:23.357Z,13.95
2019-04-20T18:34:56.359Z,13.78
2019-04-20T18:37:26.589Z,10.70
2019-04-20T18:39:59.611Z,14.10
2019-04-20T18:42:31.333Z,19.75
2019-04-20T18:45:14.382Z,15.65
2019-04-20T18:47:45.241Z,20.57
2019-04-20T18:50:09.425Z,22.67
2019-04-20T18:52:29.520Z,20.33
2019-04-20T18:54:59.483Z,17.37
2019-04-20T18:57:30.786Z,13.40
2019-04-20T19:00:00.180Z,12.58
2019-04-20T19:02:33.422Z,14.53
2019-04-20T19:05:01.566Z,16.03
2019-04-20T19:07:34.894Z,21.97
2019-04-20T19:10:09.360Z,18.43
2019-04-20T19:12:42.483Z,19.50
2019-04-20T19:15:28.122Z,20.17
2019-04-20T19:17:50.004Z,14.80
2019-04-20T19:20:29.117Z,23.52
2019-04-20T19:22:58.073Z,29.67
2019-04-20T19:25:31.574Z,36.73
2019-04-20T19:27:59.274Z,16.47
2019-04-20T19:30:36.038Z,15.03
2019-04-20T19:33:14.932Z,25.20
2019-04-20T19:35:40.676Z,26.45
2019-04-20T19:38:09.625Z,18.60
2019-04-20T19:43:15.668Z,22.32
2019-04-20T19:46:07.212Z,21.37
2019-04-20T19:48:21.959Z,22.98
2019-04-20T19:51:05.919Z,23.05
2019-04-20T19:53:36.541Z,20.68
2019-04-20T19:56:00.500Z,22.02
2019-04-20T19:58:28.070Z,18.40
2019-04-20T20:00:53.802Z,21.27
2019-04-20T20:03:21.991Z,15.93
2019-04-20T20:05:53.855Z,13.05
2019-04-20T20:08:26.253Z,14.43
2019-04-20T20:10:52.646Z,18.35
2019-04-20T20:13:27.655Z,15.83
2019-04-20T20:16:09.044Z,17.00
2019-04-20T20:18:47.690Z,15.03
2019-04-20T20:21:38.523Z,16.05
2019-04-20T20:23:58.179Z,14.23
2019-04-20T20:26:50.039Z,13.13
2019-04-20T20:29:28.402Z,19.80
2019-04-20T20:32:01.701Z,16.90
2019-04-20T20:34:30.963Z,15.88
2019-04-20T20:37:01.824Z,19.37
2019-04-20T20:39:30.961Z,15.93
2019-04-20T20:42:15.187Z,13.20
2019-04-20T20:44:42.858Z,16.35
2019-04-20T20:47:31.485Z,17.45
2019-04-20T20:50:08.581Z,20.45
2019-04-20T20:52:31.826Z,17.45
2019-04-20T20:55:04.675Z,17.65
2019-04-20T21:00:12.141Z,18.10
2019-04-20T21:02:42.013Z,20.15
2019-04-20T21:05:05.870Z,18.15
2019-04-20T21:07:34.701Z,22.50
2019-04-20T21:10:06.168Z,19.25
2019-04-20T21:12:43.677Z,18.50
2019-04-20T21:15:13.359Z,21.60
2019-04-20T21:18:04.677Z,21.05
2019-04-20T21:20:20.322Z,15.78
2019-04-20T21:22:55.072Z,18.77
2019-04-20T21:25:12.971Z,25.12
2019-04-20T21:27:42.562Z,20.43
2019-04-20T21:30:18.453Z,19.57
2019-04-20T21:32:45.686Z,15.78
2019-04-20T21:35:15.516Z,18.27
2019-04-20T21:37:52.594Z,17.40
2019-04-20T21:40:25.144Z,17.87
2019-04-20T21:42:52.491Z,16.95
2019-04-20T21:45:24.840Z,19.67
2019-04-20T21:47:50.284Z,21.33
2019-04-20T21:50:36.232Z,21.93
2019-04-20T21:52:58.578Z,18.07
2019-04-20T21:55:30.058Z,20.65
2019-04-20T21:58:01.875Z,15.95
2019-04-20T22:01:06.140Z,16.17
2019-04-20T22:03:24.741Z,18.92
2019-04-20T22:06:02.580Z,20.25
2019-04-20T22:08:32.680Z,19.12
2019-04-20T22:11:03.848Z,17.90
2019-04-20T22:13:42.077Z,19.85
2019-04-20T22:16:12.237Z,18.17
2019-04-20T22:18:48.560Z,21.60
2019-04-20T22:21:21.344Z,21.95
2019-04-20T22:23:59.876Z,18.02
2019-04-20T22:26:26.237Z,20.08
2019-04-20T22:28:52.150Z,15.68
2019-04-20T22:31:29.794Z,19.62
2019-04-20T22:34:00.797Z,20.52
2019-04-20T22:36:35.499Z,18.87
2019-04-20T22:39:13.775Z,18.70
2019-04-20T22:41:59.067Z,19.37
2019-04-20T22:44:26.592Z,23.02
2019-04-20T22:46:54.351Z,18.80
2019-04-20T22:49:39.923Z,18.12
2019-04-20T22:52:05.900Z,22.80
2019-04-20T22:54:49.421Z,18.67
2019-04-20T22:57:12.855Z,23.15
2019-04-20T22:59:41.852Z,19.35
2019-04-20T23:02:06.537Z,22.77
2019-04-20T23:04:37.104Z,19.23
2019-04-20T23:07:06.299Z,20.75
2019-04-20T23:09:50.381Z,21.37
2019-04-20T23:12:17.816Z,20.17
2019-04-20T23:14:44.753Z,20.45
2019-04-20T23:17:18.446Z,22.87
2019-04-20T23:19:52.851Z,19.00
2019-04-20T23:22:23.070Z,18.12
2019-04-20T23:24:53.318Z,16.50
2019-04-20T23:27:31.253Z,17.05
2019-04-20T23:29:58.354Z,20.57
2019-04-20T23:32:30.058Z,20.40
2019-04-20T23:35:08.252Z,18.82
2019-04-20T23:37:38.530Z,19.55
2019-04-20T23:40:16.424Z,18.10
2019-04-20T23:42:58.020Z,20.27
2019-04-20T23:45:35.507Z,18.65
2019-04-20T23:48:04.322Z,24.10
2019-04-20T23:50:49.063Z,20.80
2019-04-20T23:53:19.868Z,22.93
2019-04-20T23:55:31.918Z,20.10
2019-04-20T23:58:04.998Z,18.98
